Portada
METAR-TAF:

METAR-TAF

Aeroports :

Paraguaná, Veneçuela

latitud: 11-47N, longitud: 070-09W, altitud: 23 m

METAR: manca

Hora: 01:13 (05:13 UTC)

Pronòstic

L'informe es va fer fa 7 hores i 13 minuts, a les 22:00 UTC
Pronòstic vàlid del 29 a les 00 UTC al 30 a les 00 UTC
Vent 8 kt del Est
Visibilitat 10 km o més
Núvols disperses a una alçada de 9000 ft
Temporalment
l' 29 a les 00 UTC al 29 a les 05 UTC
Vent 3 kt del Est
Visibilitat: 9000 m
Núvols disperses a una alçada de 10000 ft
Cel ennuvolat a una alçada de 9000 ft
plugim

TAF: SVJC 282200Z 2900/3000 08008KT 9999 SCT090 TX33/2919Z TN23/2907Z TEMPO 2900/2905 08003KT 9000 DZ SCT100 BKN090

Observacions i pronòstics meteorològics de més de 4000 aeroports (METAR i TAF).

Les estacions disponibles són els punts grocs i vermells al mapa.

Posi el ratolí al punt desitjat per veure el nom de l'estació.

Feu clic per veure les observacions i els pronòstics meteorològics.

Per canviar el mapa: feu clic els botons verds amb una creu de color negre per apropar; al botó verd amb un guió per allunyar la imatge; o en les fletxes verdes per a mapes adjacents.


METAR-TAF: